Time;durP1;ratioP1;P1;durP2;ratioP2;P2;SDS_P1;SDS_P2;PMS_P1;PMS_P2;Temp;Humidity;BMP_temperature;BMP_pressure;BME280_temperature;BME280_humidity;BME280_pressure;Samples;Min_cycle;Max_cycle;Signal;HPM_P1;HPM_P2
2022/12/26 00:03:29;;;;;;;27.52;14.63;;;7.70;99.90;;;;;;6224487;22;20234;-89
2022/12/26 00:32:53;;;;;;;25.98;15.75;;;8.00;99.90;;;;;;6199045;22;20212;31
2022/12/26 00:38:12;;;;;;;25.60;14.43;;;7.80;99.90;;;;;;6205183;22;20192;-93
2022/12/26 00:40:42;;;;;;;20.50;14.30;;;7.80;99.90;;;;;;6169245;22;20288;-91
2022/12/26 00:43:09;;;;;;;22.73;14.15;;;7.80;99.90;;;;;;6158376;23;20208;-93
2022/12/26 00:45:38;;;;;;;28.50;15.43;;;7.80;99.90;;;;;;6206298;23;20196;-91
2022/12/26 00:51:05;;;;;;;26.80;15.20;;;7.70;99.90;;;;;;6227671;22;20211;-91
2022/12/26 00:56:11;;;;;;;27.33;14.60;;;7.70;99.90;;;;;;6186414;22;20523;-92
2022/12/26 01:17:30;;;;;;;27.65;14.68;;;8.10;99.90;;;;;;6149148;22;20358;-90
2022/12/26 01:20:23;;;;;;;21.10;13.35;;;8.10;99.90;;;;;;6222856;22;20189;-89
2022/12/26 01:22:59;;;;;;;19.65;13.18;;;8.10;99.90;;;;;;6223145;22;20194;-90
2022/12/26 01:36:16;;;;;;;20.52;12.32;;;7.80;99.90;;;;;;6217657;22;20459;-89
2022/12/26 01:38:44;;;;;;;25.98;12.85;;;7.80;99.90;;;;;;6231242;23;20172;-91
2022/12/26 01:41:19;;;;;;;20.65;13.27;;;7.80;99.90;;;;;;6228755;23;20187;-92
2022/12/26 01:43:56;;;;;;;21.52;13.27;;;7.70;99.90;;;;;;6231786;23;20160;-91
2022/12/26 01:46:40;;;;;;;21.67;12.68;;;7.70;99.90;;;;;;6230088;23;20204;-90
2022/12/26 01:49:17;;;;;;;15.15;10.77;;;7.60;99.90;;;;;;6229790;23;20439;-92
2022/12/26 01:51:51;;;;;;;28.48;14.00;;;7.60;99.90;;;;;;6228854;23;20191;-91
2022/12/26 01:54:21;;;;;;;21.83;14.30;;;7.70;99.90;;;;;;6227750;23;20169;-89
2022/12/26 02:05:32;;;;;;;20.73;14.15;;;7.70;99.90;;;;;;6209921;22;20232;-91
2022/12/26 02:05:33;;;;;;;29.85;16.27;;;7.90;99.90;;;;;;6204908;22;20200;-91
2022/12/26 02:08:14;;;;;;;23.55;14.18;;;8.00;99.90;;;;;;6232679;23;20204;-92
2022/12/26 02:10:48;;;;;;;20.52;12.98;;;8.00;99.90;;;;;;6229053;23;20387;-91
2022/12/26 02:24:41;;;;;;;17.48;12.35;;;8.20;99.90;;;;;;6225103;22;20228;-92
2022/12/26 02:33:43;;;;;;;18.30;11.50;;;8.20;99.90;;;;;;6133881;22;20511;-89
2022/12/26 02:36:13;;;;;;;21.02;12.63;;;8.30;99.90;;;;;;6213367;23;20154;-92
2022/12/26 02:47:10;;;;;;;18.58;11.93;;;8.20;99.90;;;;;;6166368;22;20292;-90
2022/12/26 03:14:51;;;;;;;19.98;13.30;;;8.20;99.90;;;;;;6229277;23;20194;-88
2022/12/26 03:27:59;;;;;;;18.20;12.37;;;8.20;99.90;;;;;;6154860;22;1568067;-89
2022/12/26 04:19:46;;;;;;;15.50;11.07;;;9.10;99.90;;;;;;6257646;22;20246;-89
2022/12/26 04:47:36;;;;;;;8.82;7.82;;;9.60;99.90;;;;;;6235986;23;20186;-89
2022/12/26 04:50:11;;;;;;;5.85;5.25;;;9.60;99.90;;;;;;6232430;22;20670;-90
2022/12/26 04:52:57;;;;;;;8.80;6.85;;;9.50;99.90;;;;;;6258842;22;20185;-91
2022/12/26 04:55:29;;;;;;;10.75;6.95;;;9.60;99.90;;;;;;6260801;22;20180;-90
2022/12/26 04:57:57;;;;;;;7.10;6.00;;;9.40;99.90;;;;;;6257432;22;20185;-90
2022/12/26 05:11:30;;;;;;;10.43;7.05;;;9.60;99.90;;;;;;6242814;23;20158;-89
2022/12/26 05:13:58;;;;;;;8.68;6.45;;;9.70;99.90;;;;;;6242419;23;20179;-90
2022/12/26 05:30:48;;;;;;;8.35;6.80;;;9.70;99.90;;;;;;6230104;22;20679;-91
2022/12/26 05:36:03;;;;;;;8.50;6.85;;;9.80;99.90;;;;;;6253055;23;20246;-90
2022/12/26 05:38:31;;;;;;;10.45;6.38;;;9.90;99.90;;;;;;6253371;23;20191;-91
2022/12/26 05:40:58;;;;;;;8.43;7.57;;;9.90;99.90;;;;;;6201080;23;20184;-90
2022/12/26 05:43:27;;;;;;;7.40;5.13;;;10.00;99.90;;;;;;6253993;23;20186;-89
2022/12/26 05:45:54;;;;;;;7.07;5.70;;;10.10;99.90;;;;;;6255375;23;20189;-89
2022/12/26 05:48:21;;;;;;;10.10;7.13;;;10.30;99.90;;;;;;6231191;22;20205;-91
2022/12/26 05:50:49;;;;;;;8.40;6.32;;;10.20;99.90;;;;;;6230823;23;20181;-89
2022/12/26 05:53:16;;;;;;;7.63;6.82;;;10.10;99.90;;;;;;6228567;23;20186;-90
2022/12/26 05:55:44;;;;;;;11.77;5.22;;;10.30;99.90;;;;;;6255605;23;20498;-90
2022/12/26 05:58:11;;;;;;;10.73;6.85;;;10.20;99.90;;;;;;6237509;22;20162;-85
2022/12/26 06:00:38;;;;;;;10.20;5.85;;;10.20;99.90;;;;;;6244738;23;20174;-90
2022/12/26 06:03:06;;;;;;;8.02;7.10;;;10.20;99.90;;;;;;6268383;22;20189;-89
2022/12/26 06:05:33;;;;;;;6.97;5.80;;;10.10;99.90;;;;;;6247690;22;20202;-90
2022/12/26 06:08:01;;;;;;;6.07;5.05;;;10.20;99.90;;;;;;6256795;23;20190;-90
2022/12/26 06:10:29;;;;;;;6.70;5.03;;;10.20;99.90;;;;;;6209439;23;20186;-87
2022/12/26 06:12:58;;;;;;;7.35;5.85;;;10.30;99.90;;;;;;6260448;23;20193;-90
2022/12/26 06:15:25;;;;;;;7.88;5.40;;;10.20;99.90;;;;;;6256139;23;20186;-91
2022/12/26 06:17:55;;;;;;;6.45;5.65;;;10.30;99.90;;;;;;6230771;23;20205;-90
2022/12/26 06:20:22;;;;;;;6.85;6.10;;;10.40;99.90;;;;;;6230016;23;20190;-88
2022/12/26 06:22:55;;;;;;;6.22;5.53;;;10.40;99.90;;;;;;6231294;23;20192;-88
2022/12/26 06:25:23;;;;;;;5.30;4.75;;;10.40;99.90;;;;;;6254002;23;20171;-88
2022/12/26 06:27:49;;;;;;;6.25;5.63;;;10.20;99.90;;;;;;6253478;23;20182;-89
2022/12/26 06:30:16;;;;;;;8.75;6.85;;;10.30;99.90;;;;;;6254682;23;20196;-89
2022/12/26 06:32:43;;;;;;;8.95;6.28;;;10.20;99.90;;;;;;6229849;23;20182;-89
2022/12/26 06:35:12;;;;;;;10.55;5.43;;;10.20;99.90;;;;;;6253358;23;20181;-90
2022/12/26 06:37:40;;;;;;;6.80;5.68;;;10.20;99.90;;;;;;6229349;23;20206;-89
2022/12/26 06:40:08;;;;;;;6.30;4.78;;;10.30;99.90;;;;;;6258080;23;20170;-89
2022/12/26 06:42:35;;;;;;;7.70;6.07;;;10.30;99.90;;;;;;6241257;23;20181;-89
2022/12/26 06:45:02;;;;;;;7.50;5.53;;;10.00;99.90;;;;;;6221252;23;20178;-88
2022/12/26 06:47:31;;;;;;;7.68;6.85;;;10.10;99.90;;;;;;6267192;23;20236;-88
2022/12/26 06:50:01;;;;;;;7.30;6.57;;;9.90;99.90;;;;;;6255508;23;20204;-89
2022/12/26 06:52:28;;;;;;;5.97;4.47;;;9.90;99.90;;;;;;6252709;23;20189;-88
2022/12/26 06:54:57;;;;;;;7.07;6.03;;;10.00;99.90;;;;;;6204390;23;20213;-91
2022/12/26 06:57:25;;;;;;;6.43;5.43;;;9.90;99.90;;;;;;6252973;23;20404;-89
2022/12/26 06:59:52;;;;;;;5.68;4.65;;;9.90;99.90;;;;;;6252981;23;20182;-88
2022/12/26 07:10:28;;;;;;;7.25;5.93;;;10.00;99.90;;;;;;6201124;22;20385;-90
2022/12/26 07:26:04;;;;;;;7.47;6.68;;;9.70;99.90;;;;;;6253387;22;20238;-88
2022/12/26 07:31:07;;;;;;;9.18;6.13;;;9.60;99.90;;;;;;6177197;22;20184;-90
2022/12/26 07:33:34;;;;;;;8.68;6.63;;;9.70;99.90;;;;;;6284021;22;20184;-86
2022/12/26 07:36:05;;;;;;;8.20;6.70;;;9.80;99.90;;;;;;6256278;22;20381;-87
2022/12/26 07:38:36;;;;;;;7.40;6.32;;;9.70;99.90;;;;;;6286279;22;20212;-87
2022/12/26 07:43:53;;;;;;;5.60;5.05;;;9.70;99.90;;;;;;6286318;22;20189;-89
2022/12/26 07:46:20;;;;;;;6.10;5.50;;;9.70;99.90;;;;;;6260983;22;20193;-89
2022/12/26 07:48:50;;;;;;;6.15;4.75;;;9.80;99.90;;;;;;6261836;22;20563;-91
2022/12/26 07:51:21;;;;;;;8.90;6.43;;;9.80;99.90;;;;;;6260083;22;20195;-90
2022/12/26 07:53:52;;;;;;;7.90;7.05;;;10.00;99.90;;;;;;6235550;22;20211;-86
2022/12/26 07:56:22;;;;;;;6.45;4.93;;;10.10;99.90;;;;;;6258733;22;20204;-90
2022/12/26 07:58:58;;;;;;;8.48;6.22;;;10.00;99.90;;;;;;6259086;22;20185;-91
2022/12/26 08:01:25;;;;;;;7.25;5.35;;;10.10;99.90;;;;;;6259286;22;20493;-90
2022/12/26 08:03:53;;;;;;;9.23;6.93;;;10.10;99.90;;;;;;6286111;22;20189;-90
2022/12/26 08:06:22;;;;;;;7.35;6.00;;;10.20;99.90;;;;;;6286903;22;20173;-90
2022/12/26 08:08:53;;;;;;;7.13;5.53;;;10.10;99.90;;;;;;6286675;22;20224;-91
2022/12/26 08:11:22;;;;;;;6.85;6.15;;;10.30;99.90;;;;;;6260278;22;20173;-91
2022/12/26 08:13:51;;;;;;;7.22;5.90;;;10.20;99.90;;;;;;6236195;22;20177;-88
2022/12/26 08:16:20;;;;;;;13.60;5.53;;;10.20;99.90;;;;;;6267073;22;20181;-90
2022/12/26 08:18:49;;;;;;;5.78;4.78;;;10.30;99.90;;;;;;6261258;22;20410;-87
2022/12/26 08:21:16;;;;;;;7.20;5.25;;;10.30;99.90;;;;;;6288630;22;20254;-91
2022/12/26 08:23:47;;;;;;;7.20;5.50;;;10.40;99.90;;;;;;6264643;22;20170;-90
2022/12/26 08:26:21;;;;;;;7.50;5.00;;;10.60;99.90;;;;;;6262747;22;20189;-88
2022/12/26 08:29:26;;;;;;;5.35;4.65;;;10.60;99.90;;;;;;6264310;22;20538;-87
2022/12/26 08:32:20;;;;;;;5.78;4.43;;;10.50;99.90;;;;;;6273185;22;20480;-90
2022/12/26 08:34:47;;;;;;;7.78;5.30;;;10.40;99.90;;;;;;6287775;22;20181;-86
2022/12/26 08:37:16;;;;;;;10.45;7.50;;;10.20;99.90;;;;;;6289503;22;20240;-88
2022/12/26 08:43:31;;;;;;;6.00;5.32;;;10.20;99.90;;;;;;6291121;22;20156;-89
2022/12/26 08:54:38;;;;;;;6.75;6.03;;;9.90;99.90;;;;;;6295668;22;20244;-88
2022/12/26 09:00:54;;;;;;;8.00;6.53;;;9.80;99.90;;;;;;6322397;22;20312;-89
2022/12/26 09:03:22;;;;;;;10.60;7.03;;;9.80;99.90;;;;;;6297884;22;20185;-89
2022/12/26 09:06:15;;;;;;;7.13;5.95;;;9.80;99.90;;;;;;6298660;22;20184;-88
2022/12/26 09:09:31;;;;;;;8.65;6.72;;;9.70;99.90;;;;;;6296784;22;20177;-88
2022/12/26 09:16:32;;;;;;;10.70;7.70;;;10.00;99.90;;;;;;6328314;22;20132;-88
2022/12/26 09:19:05;;;;;;;9.38;7.13;;;10.50;99.90;;;;;;6300670;22;20200;-86
2022/12/26 09:21:33;;;;;;;7.80;6.10;;;10.60;99.90;;;;;;6294489;22;20177;-88
2022/12/26 09:24:02;;;;;;;8.15;6.50;;;10.60;99.90;;;;;;6300464;22;20157;-89
2022/12/26 09:30:19;;;;;;;7.55;5.63;;;11.00;99.90;;;;;;6323704;22;20148;-90
2022/12/26 09:32:48;;;;;;;10.13;6.10;;;11.30;99.90;;;;;;6296957;22;20436;-89
2022/12/26 09:35:28;;;;;;;4.75;4.35;;;11.20;99.90;;;;;;6303668;22;20183;-89
2022/12/26 09:37:56;;;;;;;12.13;6.55;;;11.50;99.90;;;;;;6295834;22;20189;-89
2022/12/26 09:40:54;;;;;;;6.70;6.00;;;11.70;99.90;;;;;;6297852;22;20244;-89
2022/12/26 09:43:44;;;;;;;7.70;6.00;;;11.80;99.90;;;;;;6301203;22;20183;-90
2022/12/26 09:46:45;;;;;;;9.68;5.22;;;11.90;99.90;;;;;;6301159;22;20165;-90
2022/12/26 09:49:38;;;;;;;6.40;4.05;;;11.70;99.90;;;;;;6334879;22;20158;-91
2022/12/26 10:08:10;;;;;;;6.13;5.20;;;12.00;99.90;;;;;;6235606;23;20175;-85
2022/12/26 10:18:55;;;;;;;4.95;4.07;;;12.60;99.90;;;;;;6234595;23;20231;-91
2022/12/26 10:21:52;;;;;;;10.07;5.35;;;12.70;99.90;;;;;;6236222;23;20180;-90
2022/12/26 10:27:59;;;;;;;5.90;4.63;;;13.00;99.90;;;;;;6216706;23;20158;-90
2022/12/26 10:30:40;;;;;;;6.30;4.93;;;13.30;99.90;;;;;;6236445;23;20184;-89
2022/12/26 10:33:50;;;;;;;6.30;4.80;;;13.40;99.90;;;;;;6235143;23;20175;-91
2022/12/26 11:03:54;;;;;;;5.53;4.82;;;12.00;99.90;;;;;;6211661;22;20250;-90
2022/12/26 11:14:27;;;;;;;8.73;5.22;;;11.90;99.90;;;;;;6320378;22;20144;-91
2022/12/26 11:21:25;;;;;;;6.03;5.43;;;11.90;99.90;;;;;;6327317;22;20337;-91
2022/12/26 11:31:32;;;;;;;7.85;5.88;;;12.00;99.90;;;;;;6327817;22;20145;-91
2022/12/26 11:34:05;;;;;;;4.88;3.97;;;12.10;99.90;;;;;;6300144;22;20169;-89
2022/12/26 11:36:35;;;;;;;7.07;4.95;;;12.20;99.90;;;;;;6327332;22;20158;-89
2022/12/26 11:42:59;;;;;;;6.00;5.13;;;12.30;99.90;;;;;;6328196;22;20173;-93
2022/12/26 11:56:08;;;;;;;5.55;4.63;;;12.80;99.90;;;;;;6266927;22;20237;-93
2022/12/26 12:01:42;;;;;;;11.13;5.43;;;12.70;99.90;;;;;;6190177;22;20192;-90
2022/12/26 12:04:10;;;;;;;6.85;5.05;;;12.60;99.90;;;;;;6229229;22;20258;-89
2022/12/26 12:40:39;;;;;;;5.82;3.92;;;12.80;99.90;;;;;;6278005;22;20186;-87
2022/12/26 12:43:19;;;;;;;6.75;5.95;;;12.90;99.90;;;;;;6229651;23;20201;-87
2022/12/26 12:46:27;;;;;;;4.85;4.35;;;13.00;99.90;;;;;;6255558;23;20184;-87
2022/12/26 12:49:36;;;;;;;8.75;4.55;;;13.00;99.90;;;;;;6255846;23;20179;-88
2022/12/26 12:52:15;;;;;;;7.43;4.80;;;12.80;99.90;;;;;;6231975;23;20312;-87
2022/12/26 12:55:13;;;;;;;7.55;5.80;;;12.80;99.90;;;;;;6234117;23;20155;-88
2022/12/26 12:57:54;;;;;;;11.38;7.70;;;12.80;99.90;;;;;;6260823;23;20214;-89
2022/12/26 13:00:26;;;;;;;5.35;3.85;;;12.80;99.90;;;;;;6260404;23;20239;-87
2022/12/26 13:03:19;;;;;;;5.90;5.30;;;12.80;99.90;;;;;;6257507;23;20170;-88
2022/12/26 13:06:13;;;;;;;5.35;4.65;;;12.70;99.90;;;;;;6231574;23;20171;-86
2022/12/26 13:09:20;;;;;;;6.93;4.18;;;12.60;99.90;;;;;;6232495;23;20171;-87
2022/12/26 13:12:06;;;;;;;4.80;3.95;;;12.70;99.90;;;;;;6231544;23;20182;-89
2022/12/26 13:15:15;;;;;;;5.75;4.97;;;12.70;99.90;;;;;;6257991;23;20185;-88
2022/12/26 13:18:00;;;;;;;5.90;4.18;;;12.60;99.90;;;;;;6216155;23;20222;-89
2022/12/26 13:20:43;;;;;;;6.68;5.47;;;12.70;99.90;;;;;;6207315;23;20249;-86
2022/12/26 13:26:29;;;;;;;7.80;4.50;;;12.60;99.90;;;;;;6196009;23;20178;-87
2022/12/26 13:29:32;;;;;;;4.32;3.85;;;12.60;99.90;;;;;;6255782;23;20697;-86
2022/12/26 13:32:03;;;;;;;15.52;4.72;;;12.60;99.90;;;;;;6254614;23;20183;-87
2022/12/26 13:34:33;;;;;;;8.45;4.43;;;12.50;99.90;;;;;;6230746;23;20170;-86
2022/12/26 13:37:04;;;;;;;7.05;5.60;;;12.60;99.90;;;;;;6258499;23;20175;-86
2022/12/26 13:39:36;;;;;;;6.80;4.85;;;12.50;99.90;;;;;;6256838;22;20336;-85
2022/12/26 13:45:38;;;;;;;6.80;4.70;;;12.60;99.90;;;;;;6264767;23;20182;-86
2022/12/26 13:48:11;;;;;;;14.07;10.38;;;12.50;99.90;;;;;;6199565;23;20162;-89
2022/12/26 13:50:59;;;;;;;11.15;6.25;;;12.40;99.90;;;;;;6267275;23;20181;-85
2022/12/26 13:53:37;;;;;;;15.52;10.55;;;12.40;99.90;;;;;;6267519;23;20175;-86
2022/12/26 13:56:22;;;;;;;8.82;5.18;;;12.30;99.90;;;;;;6232409;23;20163;-87
2022/12/26 13:59:06;;;;;;;7.40;4.85;;;12.10;99.90;;;;;;6229604;23;20202;-86
2022/12/26 14:02:16;;;;;;;7.68;4.95;;;12.10;99.90;;;;;;6227419;23;20225;-85
2022/12/26 14:05:27;;;;;;;11.30;6.75;;;12.00;99.90;;;;;;6218632;23;20461;-88
2022/12/26 14:08:16;;;;;;;7.18;6.13;;;12.10;99.90;;;;;;6131060;23;20177;-88
2022/12/26 14:11:05;;;;;;;9.02;7.57;;;12.00;99.90;;;;;;6225575;23;20225;-87
2022/12/26 14:14:02;;;;;;;7.25;6.10;;;11.90;99.90;;;;;;6228126;23;20183;-85
2022/12/26 14:16:53;;;;;;;9.77;6.70;;;11.80;99.90;;;;;;6228317;23;20386;-86
2022/12/26 14:19:46;;;;;;;7.32;6.15;;;11.90;99.90;;;;;;6227933;23;20182;-89
2022/12/26 14:22:48;;;;;;;10.15;5.80;;;11.80;99.90;;;;;;6227802;23;20183;-87
2022/12/26 14:25:48;;;;;;;10.13;5.72;;;11.80;99.90;;;;;;6247170;23;20229;-88
2022/12/26 14:28:23;;;;;;;7.78;5.95;;;11.80;99.90;;;;;;6255534;23;20171;-86
2022/12/26 14:31:21;;;;;;;11.27;6.15;;;11.90;99.90;;;;;;6253058;23;20205;-88
2022/12/26 14:34:19;;;;;;;10.98;8.63;;;11.80;99.90;;;;;;6253453;23;20163;-87
2022/12/26 14:37:00;;;;;;;4.55;4.15;;;11.80;99.90;;;;;;6206644;23;20230;-87
2022/12/26 14:40:01;;;;;;;10.95;7.90;;;11.80;99.90;;;;;;6253423;22;20182;-87
2022/12/26 14:45:35;;;;;;;9.82;6.00;;;11.80;99.90;;;;;;6166038;23;20433;-86
2022/12/26 14:48:15;;;;;;;10.60;6.03;;;11.90;99.90;;;;;;6249869;23;20186;-88
2022/12/26 14:50:51;;;;;;;7.63;5.50;;;12.00;99.90;;;;;;6240348;23;20302;-88
2022/12/26 14:53:28;;;;;;;7.00;5.75;;;11.90;99.90;;;;;;6229654;23;20408;-88
2022/12/26 14:56:16;;;;;;;7.55;6.28;;;12.00;99.90;;;;;;6229405;23;20345;-87
2022/12/26 14:58:47;;;;;;;6.10;5.47;;;12.00;99.90;;;;;;6226091;23;20214;-88
2022/12/26 15:01:14;;;;;;;8.02;6.22;;;12.00;99.90;;;;;;6251422;23;20238;-88
2022/12/26 15:04:16;;;;;;;8.63;5.68;;;12.00;99.90;;;;;;6255059;23;20177;-87
2022/12/26 15:07:12;;;;;;;6.55;5.65;;;11.90;99.90;;;;;;6252850;23;20170;-87
2022/12/26 15:09:58;;;;;;;5.57;5.07;;;11.80;99.90;;;;;;6251780;23;20174;-88
2022/12/26 15:12:45;;;;;;;7.88;5.65;;;11.80;99.90;;;;;;6229165;23;20170;-87
2022/12/26 15:15:30;;;;;;;7.55;5.72;;;11.90;99.90;;;;;;6230168;23;20660;-88
2022/12/26 15:18:19;;;;;;;9.80;6.22;;;11.80;99.90;;;;;;6254723;23;20236;-87
2022/12/26 15:21:22;;;;;;;6.68;5.68;;;11.80;99.90;;;;;;6253716;23;20217;-89
2022/12/26 15:24:22;;;;;;;15.02;6.47;;;11.90;99.90;;;;;;6259563;23;20201;-91
2022/12/26 15:27:41;;;;;;;6.35;5.10;;;11.90;99.90;;;;;;6248977;22;20234;-90
2022/12/26 15:30:25;;;;;;;5.10;4.53;;;11.90;99.90;;;;;;6241672;23;20170;-91
2022/12/26 15:33:18;;;;;;;6.32;5.60;;;11.90;99.90;;;;;;6239626;23;20218;-89
2022/12/26 15:36:12;;;;;;;7.72;6.25;;;12.00;99.90;;;;;;6240619;23;20155;-90
2022/12/26 15:39:01;;;;;;;5.95;5.35;;;11.80;99.90;;;;;;6235780;23;20179;-91
2022/12/26 15:41:39;;;;;;;6.68;4.82;;;11.90;99.90;;;;;;6282698;22;20185;-91
2022/12/26 15:44:45;;;;;;;6.20;5.60;;;11.80;99.90;;;;;;6287522;22;20191;-90
2022/12/26 15:47:36;;;;;;;5.82;5.10;;;11.70;99.90;;;;;;6288117;22;20170;-90
2022/12/26 15:50:25;;;;;;;8.52;5.15;;;11.70;99.90;;;;;;6290463;22;20174;-92
2022/12/26 15:53:18;;;;;;;5.03;4.28;;;11.70;99.90;;;;;;6288713;22;20178;-89
2022/12/26 15:55:59;;;;;;;6.00;5.38;;;11.70;99.90;;;;;;6290644;22;20189;-90
2022/12/26 15:58:46;;;;;;;7.45;5.55;;;11.60;99.90;;;;;;6287208;22;20497;-91
2022/12/26 16:01:35;;;;;;;7.78;5.85;;;11.70;99.90;;;;;;6285860;22;20169;-90
2022/12/26 16:04:06;;;;;;;7.47;6.05;;;11.60;99.90;;;;;;6285570;22;20198;-89
2022/12/26 16:06:50;;;;;;;6.85;5.63;;;11.70;99.90;;;;;;6263271;22;20182;-88
2022/12/26 16:09:46;;;;;;;9.45;5.97;;;11.70;99.90;;;;;;6289999;22;20215;-91
2022/12/26 16:12:34;;;;;;;7.15;5.20;;;11.70;99.90;;;;;;6291530;22;20181;-91
2022/12/26 16:15:19;;;;;;;5.63;4.35;;;11.80;99.90;;;;;;6289974;22;20178;-91
2022/12/26 16:17:47;;;;;;;6.00;5.47;;;11.90;99.90;;;;;;6289217;22;20194;-89
2022/12/26 16:23:25;;;;;;;12.10;7.15;;;11.60;99.90;;;;;;6259882;22;20178;-88
2022/12/26 16:25:59;;;;;;;7.68;5.88;;;11.60;99.90;;;;;;6291861;22;20194;-87
2022/12/26 16:28:40;;;;;;;7.72;5.95;;;11.40;99.90;;;;;;6288181;22;20206;-85
2022/12/26 16:31:09;;;;;;;6.65;5.97;;;11.20;99.90;;;;;;6285482;22;20228;-84
2022/12/26 16:33:42;;;;;;;10.30;6.35;;;10.90;99.90;;;;;;6286410;22;20174;-85
2022/12/26 16:36:26;;;;;;;6.78;6.18;;;10.60;99.90;;;;;;6286268;22;20169;-87
2022/12/26 16:38:54;;;;;;;7.75;4.40;;;10.60;99.90;;;;;;6260071;22;20200;-83
2022/12/26 16:41:29;;;;;;;5.10;4.40;;;10.30;99.90;;;;;;6258207;22;20232;-85
2022/12/26 16:44:30;;;;;;;4.07;3.35;;;10.20;99.90;;;;;;6230108;23;20174;-86
2022/12/26 16:47:10;;;;;;;5.93;4.13;;;10.10;99.90;;;;;;6236408;23;20206;-87
2022/12/26 16:49:42;;;;;;;4.82;4.35;;;10.10;99.90;;;;;;6232198;23;20240;-87
2022/12/26 16:52:38;;;;;;;6.13;4.00;;;10.00;99.90;;;;;;6233168;23;20181;-87
2022/12/26 16:56:02;;;;;;;6.85;3.75;;;10.10;99.90;;;;;;6271755;22;20162;-86
2022/12/26 16:58:39;;;;;;;6.07;3.63;;;10.10;99.90;;;;;;6270446;23;20250;-87
2022/12/26 17:01:14;;;;;;;5.18;3.53;;;10.10;99.90;;;;;;6272188;23;20183;-88
2022/12/26 17:04:02;;;;;;;7.18;3.80;;;10.20;99.90;;;;;;6223504;23;20226;-88
2022/12/26 17:06:56;;;;;;;5.60;3.60;;;10.10;99.90;;;;;;6264319;23;20165;-85
2022/12/26 17:09:33;;;;;;;5.22;3.97;;;10.00;99.90;;;;;;6255883;23;20186;-87
2022/12/26 17:12:19;;;;;;;6.78;3.83;;;9.90;99.90;;;;;;6229120;23;20181;-86
2022/12/26 17:14:58;;;;;;;4.07;3.60;;;9.90;99.90;;;;;;6256239;23;20184;-87
2022/12/26 17:17:39;;;;;;;3.25;2.95;;;10.00;99.90;;;;;;6256679;23;20497;-88
2022/12/26 17:20:23;;;;;;;4.60;3.38;;;9.90;99.90;;;;;;6229859;23;20245;-88
2022/12/26 17:27:13;;;;;;;7.32;4.18;;;10.00;99.90;;;;;;6268382;23;20194;-91
2022/12/26 21:30:01;;;;;;;8.98;5.80;;;9.90;99.90;;;;;;6241885;22;20203;-89
2022/12/26 21:35:10;;;;;;;16.50;9.35;;;9.70;99.90;;;;;;6241520;22;20232;-91
2022/12/26 21:40:41;;;;;;;9.95;7.20;;;9.40;99.90;;;;;;6238675;22;20218;-90
2022/12/26 21:51:10;;;;;;;6.78;5.75;;;9.60;99.90;;;;;;6239040;22;20223;-90
2022/12/26 21:53:45;;;;;;;9.10;6.78;;;9.70;99.90;;;;;;6260614;23;20181;-90
2022/12/26 21:56:16;;;;;;;9.15;6.68;;;9.80;99.90;;;;;;6255601;22;20197;-90
2022/12/26 22:04:19;;;;;;;9.75;7.30;;;9.60;99.90;;;;;;6268585;22;20256;-92
2022/12/26 22:17:29;;;;;;;9.80;6.63;;;10.00;99.90;;;;;;6199882;22;20182;-91
2022/12/26 22:46:57;;;;;;;5.45;4.00;;;9.80;99.90;;;;;;6233991;22;20189;-93
2022/12/26 22:52:03;;;;;;;7.07;4.45;;;9.90;99.90;;;;;;6246069;22;20194;-92
2022/12/26 22:57:14;;;;;;;4.55;3.55;;;9.80;99.90;;;;;;6203290;22;21614;-91
2022/12/26 23:21:42;;;;;;;2.38;1.88;;;8.90;99.90;;;;;;6233576;23;20161;-88
2022/12/26 23:24:17;;;;;;;4.22;3.83;;;8.70;99.90;;;;;;6261713;23;20245;-87
2022/12/26 23:51:04;;;;;;;3.22;2.08;;;8.40;99.90;;;;;;6170330;22;20183;-92
2022/12/26 23:53:32;;;;;;;3.60;1.90;;;8.40;99.90;;;;;;6241447;22;20246;-91
2022/12/26 23:58:38;;;;;;;3.40;2.15;;;8.40;99.90;;;;;;6170691;22;20193;-91
